Time;durP1;ratioP1;P1;durP2;ratioP2;P2;SDS_P1;SDS_P2;PMS_P1;PMS_P2;Temp;Humidity;BMP_temperature;BMP_pressure;BME280_temperature;BME280_humidity;BME280_pressure;Samples;Min_cycle;Max_cycle;Signal;HPM_P1;HPM_P2
2022/08/12 00:42:50;;;;;;;10.18;6.32;;;;;;;;;;5124909;27;20034;-62
2022/08/12 00:45:17;;;;;;;11.88;6.40;;;;;;;;;;5108958;27;20043;-62
2022/08/12 00:47:44;;;;;;;8.88;6.28;;;;;;;;;;5124516;27;20446;-62
2022/08/12 00:50:17;;;;;;;13.43;6.50;;;;;;;;;;5130291;27;20438;-62
2022/08/12 00:52:44;;;;;;;9.43;6.03;;;;;;;;;;5124296;27;21101;-62
2022/08/12 00:55:10;;;;;;;10.07;6.30;;;;;;;;;;5106286;27;20056;-62
2022/08/12 00:57:36;;;;;;;10.10;6.25;;;;;;;;;;5106212;27;20050;-62
2022/08/12 01:00:02;;;;;;;10.35;6.70;;;;;;;;;;5101254;27;20040;-62
2022/08/12 01:02:31;;;;;;;10.02;6.80;;;;;;;;;;5127324;27;20053;-62
2022/08/12 01:13:15;;;;;;;9.95;7.20;;;;;;;;;;5104424;27;20180;-62
2022/08/12 01:15:43;;;;;;;8.73;7.25;;;;;;;;;;5102328;27;20079;-62
2022/08/12 01:18:10;;;;;;;10.93;7.70;;;;;;;;;;5122218;27;20055;-62
2022/08/12 01:20:40;;;;;;;12.45;7.55;;;;;;;;;;5125323;27;20047;-62
2022/08/12 01:23:14;;;;;;;11.18;7.65;;;;;;;;;;5128803;27;20043;-62
2022/08/12 01:25:42;;;;;;;8.95;7.68;;;;;;;;;;5125294;27;20185;-62
2022/08/12 01:28:12;;;;;;;12.30;8.63;;;;;;;;;;5130465;27;20042;-62
2022/08/12 01:30:40;;;;;;;11.40;8.13;;;;;;;;;;5122019;27;20126;-62
2022/08/12 01:33:10;;;;;;;11.82;8.23;;;;;;;;;;5123221;27;20043;-62
2022/08/12 01:35:37;;;;;;;11.48;7.38;;;;;;;;;;5117858;27;20499;-62
2022/08/12 01:38:05;;;;;;;8.55;7.07;;;;;;;;;;5105738;27;20095;-62
2022/08/12 01:40:33;;;;;;;10.07;7.38;;;;;;;;;;5126783;27;20071;-62
2022/08/12 01:43:04;;;;;;;9.55;7.40;;;;;;;;;;5127595;27;20049;-62
2022/08/12 01:45:33;;;;;;;11.38;7.32;;;;;;;;;;5125573;27;20066;-62
2022/08/12 01:48:11;;;;;;;10.05;7.32;;;;;;;;;;5123587;27;20051;-62
2022/08/12 01:50:45;;;;;;;10.75;7.15;;;;;;;;;;5127688;27;20167;-62
2022/08/12 01:53:14;;;;;;;12.45;7.45;;;;;;;;;;5117677;27;20106;-62
2022/08/12 01:55:41;;;;;;;12.15;8.02;;;;;;;;;;5108453;27;20132;-62
2022/08/12 01:58:15;;;;;;;11.32;7.60;;;;;;;;;;5125458;27;20040;-62
2022/08/12 02:00:47;;;;;;;10.25;8.05;;;;;;;;;;5125519;27;20102;-62
2022/08/12 02:03:26;;;;;;;9.35;7.18;;;;;;;;;;5126110;27;20051;-62
2022/08/12 02:11:33;;;;;;;9.77;7.32;;;;;;;;;;5122357;27;19919;-62
2022/08/12 02:14:05;;;;;;;11.10;8.02;;;;;;;;;;5123059;27;20371;-62
2022/08/12 02:16:41;;;;;;;11.93;8.63;;;;;;;;;;5118284;27;20062;-62
2022/08/12 02:19:26;;;;;;;11.52;8.32;;;;;;;;;;5124562;27;20047;-62
2022/08/12 02:22:05;;;;;;;13.07;8.70;;;;;;;;;;5123940;27;20046;-62
2022/08/12 02:24:32;;;;;;;9.75;7.43;;;;;;;;;;5129223;27;20034;-62
2022/08/12 02:27:00;;;;;;;11.70;8.75;;;;;;;;;;5106321;27;20054;-62
2022/08/12 02:29:27;;;;;;;10.02;8.23;;;;;;;;;;5123972;27;21418;-62
2022/08/12 02:31:54;;;;;;;11.20;10.00;;;;;;;;;;5118080;27;20046;-62
2022/08/12 02:34:21;;;;;;;14.30;9.35;;;;;;;;;;5118457;27;20072;-62
2022/08/12 02:36:48;;;;;;;12.80;9.55;;;;;;;;;;5119020;27;20043;-62
2022/08/12 02:39:15;;;;;;;13.30;9.60;;;;;;;;;;5103578;27;20059;-62
2022/08/12 02:41:43;;;;;;;11.20;9.60;;;;;;;;;;5118821;27;20138;-62
2022/08/12 02:44:09;;;;;;;11.98;8.90;;;;;;;;;;5118693;27;20047;-62
2022/08/12 02:46:37;;;;;;;11.98;9.43;;;;;;;;;;5118118;27;21698;-62
2022/08/12 02:49:03;;;;;;;15.80;10.13;;;;;;;;;;5117866;27;20111;-62
2022/08/12 02:51:30;;;;;;;12.07;9.45;;;;;;;;;;5124852;27;20039;-62
2022/08/12 02:53:57;;;;;;;13.40;9.55;;;;;;;;;;5117618;27;20062;-62
2022/08/12 02:56:26;;;;;;;13.50;9.75;;;;;;;;;;5118914;27;20047;-62
2022/08/12 02:58:53;;;;;;;12.20;8.95;;;;;;;;;;5112200;27;20047;-62
2022/08/12 03:01:22;;;;;;;12.90;9.65;;;;;;;;;;5118884;27;20056;-62
2022/08/12 03:03:51;;;;;;;13.15;9.73;;;;;;;;;;5123299;27;20039;-62
2022/08/12 03:06:20;;;;;;;13.60;10.40;;;;;;;;;;5120301;27;20092;-62
2022/08/12 03:08:47;;;;;;;16.30;10.65;;;;;;;;;;5099318;27;20051;-62
2022/08/12 03:11:16;;;;;;;19.70;11.50;;;;;;;;;;5122551;27;20489;-62
2022/08/12 03:13:54;;;;;;;15.23;10.75;;;;;;;;;;5122055;27;20147;-62
2022/08/12 03:16:20;;;;;;;11.63;9.82;;;;;;;;;;5103162;27;22395;-62
2022/08/12 03:18:48;;;;;;;11.50;8.55;;;;;;;;;;5115695;27;20386;-62
2022/08/12 03:21:16;;;;;;;10.93;8.45;;;;;;;;;;5116375;27;20036;-62
2022/08/12 03:23:44;;;;;;;9.63;8.15;;;;;;;;;;5123738;27;20128;-62
2022/08/12 03:26:10;;;;;;;8.90;7.90;;;;;;;;;;5123005;27;20443;-62
2022/08/12 03:28:49;;;;;;;12.40;9.18;;;;;;;;;;5123247;27;20129;-62
2022/08/12 03:31:16;;;;;;;11.68;9.02;;;;;;;;;;5117302;27;20436;-62
2022/08/12 03:33:44;;;;;;;13.30;7.80;;;;;;;;;;5116876;27;20043;-62
2022/08/12 03:36:10;;;;;;;10.20;6.22;;;;;;;;;;5118673;27;20046;-62
2022/08/12 03:38:41;;;;;;;12.70;7.55;;;;;;;;;;5100472;27;20112;-62
2022/08/12 03:41:33;;;;;;;10.75;7.30;;;;;;;;;;5122824;27;20050;-62
2022/08/12 04:00:44;;;;;;;17.63;11.52;;;;;;;;;;5122472;27;20046;-62
2022/08/12 04:05:56;;;;;;;17.02;11.55;;;;;;;;;;5105896;27;20051;-62
2022/08/12 04:08:23;;;;;;;23.63;12.23;;;;;;;;;;5129376;27;20130;-62
2022/08/12 04:13:34;;;;;;;17.15;11.43;;;;;;;;;;5123067;27;20048;-62
2022/08/12 04:16:01;;;;;;;16.85;11.50;;;;;;;;;;5122936;27;20549;-63
2022/08/12 04:18:27;;;;;;;17.38;11.43;;;;;;;;;;5122287;27;20541;-62
2022/08/12 04:20:54;;;;;;;16.55;11.30;;;;;;;;;;5125287;27;20387;-62
2022/08/12 04:23:22;;;;;;;13.85;10.77;;;;;;;;;;5133675;27;20067;-62
2022/08/12 04:25:48;;;;;;;17.08;10.40;;;;;;;;;;5126145;27;20126;-62
2022/08/12 04:28:15;;;;;;;11.50;10.32;;;;;;;;;;5120415;27;20088;-62
2022/08/12 04:30:42;;;;;;;13.25;9.25;;;;;;;;;;5128249;27;20038;-62
2022/08/12 04:33:09;;;;;;;13.85;8.45;;;;;;;;;;5123828;27;20050;-62
2022/08/12 04:35:36;;;;;;;8.93;6.63;;;;;;;;;;5122945;27;20039;-62
2022/08/12 04:38:04;;;;;;;9.07;6.63;;;;;;;;;;5121257;27;20050;-62
2022/08/12 04:40:32;;;;;;;6.82;6.10;;;;;;;;;;5120265;27;20047;-62
2022/08/12 04:43:00;;;;;;;8.30;6.85;;;;;;;;;;5120705;27;20058;-62
2022/08/12 04:45:26;;;;;;;10.15;6.57;;;;;;;;;;5119203;27;20459;-62
2022/08/12 04:47:52;;;;;;;7.50;5.78;;;;;;;;;;5102610;27;20070;-62
2022/08/12 04:50:19;;;;;;;8.38;5.65;;;;;;;;;;5121255;27;20581;-62
2022/08/12 04:52:45;;;;;;;7.78;6.05;;;;;;;;;;5119792;27;20667;-62
2022/08/12 04:55:11;;;;;;;9.10;6.45;;;;;;;;;;5101587;27;20126;-62
2022/08/12 04:57:38;;;;;;;9.43;6.10;;;;;;;;;;5118647;27;20506;-62
2022/08/12 05:00:11;;;;;;;9.05;5.47;;;;;;;;;;5125693;27;20047;-62
2022/08/12 05:02:37;;;;;;;8.90;6.90;;;;;;;;;;5118364;27;20447;-62
2022/08/12 05:05:04;;;;;;;8.43;5.45;;;;;;;;;;5121459;27;20514;-62
2022/08/12 05:07:32;;;;;;;9.85;5.75;;;;;;;;;;5127832;27;20074;-62
2022/08/12 05:09:59;;;;;;;7.43;5.50;;;;;;;;;;5130237;27;20040;-62
2022/08/12 05:12:26;;;;;;;9.85;7.07;;;;;;;;;;5126452;27;20099;-63
2022/08/12 05:14:52;;;;;;;13.35;6.43;;;;;;;;;;5125477;27;20074;-62
2022/08/12 05:17:18;;;;;;;10.10;6.97;;;;;;;;;;5126989;27;20384;-62
2022/08/12 05:19:44;;;;;;;8.75;6.60;;;;;;;;;;5119194;27;20147;-63
2022/08/12 05:22:10;;;;;;;11.32;7.13;;;;;;;;;;5120696;27;20504;-62
2022/08/12 05:24:36;;;;;;;15.43;7.78;;;;;;;;;;5124828;27;20035;-62
2022/08/12 05:27:03;;;;;;;18.00;7.22;;;;;;;;;;5102909;27;20963;-62
2022/08/12 05:29:29;;;;;;;15.52;6.90;;;;;;;;;;5125384;27;20038;-62
2022/08/12 05:31:55;;;;;;;13.40;7.13;;;;;;;;;;5126392;27;20043;-62
2022/08/12 05:34:22;;;;;;;12.13;7.28;;;;;;;;;;5122293;27;20031;-62
2022/08/12 05:36:48;;;;;;;14.27;6.45;;;;;;;;;;5128545;27;20038;-62
2022/08/12 05:39:14;;;;;;;13.55;6.43;;;;;;;;;;5124478;27;20087;-62
2022/08/12 05:41:40;;;;;;;10.05;6.75;;;;;;;;;;5117163;27;20047;-62
2022/08/12 05:44:07;;;;;;;9.02;6.13;;;;;;;;;;5108594;27;20084;-62
2022/08/12 05:46:34;;;;;;;10.45;6.45;;;;;;;;;;5122389;27;20422;-62
2022/08/12 05:49:01;;;;;;;10.85;7.30;;;;;;;;;;5102871;27;20458;-62
2022/08/12 05:51:30;;;;;;;11.45;6.63;;;;;;;;;;5121880;27;20115;-62
2022/08/12 05:53:57;;;;;;;14.00;6.00;;;;;;;;;;5104553;27;20378;-62
2022/08/12 05:56:25;;;;;;;11.82;6.13;;;;;;;;;;5124827;27;20043;-62
2022/08/12 05:58:52;;;;;;;8.20;5.63;;;;;;;;;;5109184;27;20050;-62
2022/08/12 06:01:19;;;;;;;7.30;5.30;;;;;;;;;;5118987;27;20434;-62
2022/08/12 06:03:45;;;;;;;13.55;5.78;;;;;;;;;;5121213;27;20100;-62
2022/08/12 06:06:13;;;;;;;10.07;5.35;;;;;;;;;;5123075;27;20042;-62
2022/08/12 06:08:45;;;;;;;7.35;5.05;;;;;;;;;;5119049;27;20063;-62
2022/08/12 06:11:11;;;;;;;8.90;5.53;;;;;;;;;;5122133;27;20062;-62
2022/08/12 06:13:41;;;;;;;7.72;4.35;;;;;;;;;;5127846;27;20051;-62
2022/08/12 06:16:08;;;;;;;8.95;5.00;;;;;;;;;;5132528;27;20110;-64
2022/08/12 06:18:38;;;;;;;11.00;4.93;;;;;;;;;;5127173;27;20083;-69
2022/08/12 06:21:06;;;;;;;8.95;4.95;;;;;;;;;;5130700;27;20042;-76
2022/08/12 06:23:32;;;;;;;9.02;5.38;;;;;;;;;;5129285;27;20039;-69
2022/08/12 06:25:58;;;;;;;10.70;4.68;;;;;;;;;;5127372;27;20482;-66
2022/08/12 06:28:25;;;;;;;8.25;5.13;;;;;;;;;;5128102;27;20091;-64
2022/08/12 06:30:52;;;;;;;10.65;5.13;;;;;;;;;;5137121;27;20130;-65
2022/08/12 06:33:18;;;;;;;10.60;5.45;;;;;;;;;;5132374;27;20103;-63
2022/08/12 06:35:45;;;;;;;7.45;4.38;;;;;;;;;;5128338;27;20046;-62
2022/08/12 06:38:18;;;;;;;5.63;4.40;;;;;;;;;;5128963;27;20478;-63
2022/08/12 06:43:30;;;;;;;10.45;5.00;;;;;;;;;;5125701;27;20042;-63
2022/08/12 06:45:57;;;;;;;9.13;4.63;;;;;;;;;;5123772;27;20113;-62
2022/08/12 06:48:25;;;;;;;15.70;4.75;;;;;;;;;;5129563;27;20080;-70
2022/08/12 06:50:51;;;;;;;8.02;4.45;;;;;;;;;;5126914;27;20047;-63
2022/08/12 06:53:17;;;;;;;9.95;5.25;;;;;;;;;;5126428;27;20045;-63
2022/08/12 06:55:43;;;;;;;6.55;4.35;;;;;;;;;;5128579;27;20047;-63
2022/08/12 06:58:10;;;;;;;10.50;3.85;;;;;;;;;;5130824;27;20035;-63
2022/08/12 07:00:37;;;;;;;34.78;8.18;;;;;;;;;;5127199;27;20035;-63
2022/08/12 07:03:04;;;;;;;45.40;7.90;;;;;;;;;;5130808;27;20039;-63
2022/08/12 07:05:31;;;;;;;65.30;10.48;;;;;;;;;;5122796;27;20158;-63
2022/08/12 07:07:58;;;;;;;12.57;5.65;;;;;;;;;;5129113;27;20066;-63
2022/08/12 07:10:25;;;;;;;9.35;4.38;;;;;;;;;;5128552;27;20031;-63
2022/08/12 07:12:53;;;;;;;12.52;4.60;;;;;;;;;;5133400;27;20130;-63
2022/08/12 07:15:23;;;;;;;24.27;6.78;;;;;;;;;;5130563;27;20061;-63
2022/08/12 07:17:59;;;;;;;9.77;4.13;;;;;;;;;;5113351;27;20513;-62
2022/08/12 07:20:28;;;;;;;8.02;4.20;;;;;;;;;;5129169;27;20115;-62
2022/08/12 07:22:54;;;;;;;7.15;3.58;;;;;;;;;;5133229;27;20157;-63
2022/08/12 07:25:30;;;;;;;6.47;3.30;;;;;;;;;;5132367;27;20080;-63
2022/08/12 07:28:00;;;;;;;7.45;3.80;;;;;;;;;;5127951;27;20047;-62
2022/08/12 07:30:26;;;;;;;10.88;3.78;;;;;;;;;;5125184;27;20515;-62
2022/08/12 07:32:53;;;;;;;9.10;3.67;;;;;;;;;;5106991;27;20066;-62
2022/08/12 07:35:19;;;;;;;11.80;3.83;;;;;;;;;;5117676;27;20039;-63
2022/08/12 07:37:49;;;;;;;9.45;3.90;;;;;;;;;;5140831;27;20532;-62
2022/08/12 07:40:17;;;;;;;7.75;3.58;;;;;;;;;;5139449;27;20102;-63
2022/08/12 07:42:44;;;;;;;8.15;3.22;;;;;;;;;;5140599;27;20089;-62
2022/08/12 07:45:11;;;;;;;8.82;3.60;;;;;;;;;;5135776;27;20035;-62
2022/08/12 07:47:39;;;;;;;8.50;3.47;;;;;;;;;;5132917;27;20493;-62
2022/08/12 07:50:08;;;;;;;10.32;3.92;;;;;;;;;;5135883;27;20040;-62
2022/08/12 07:52:37;;;;;;;12.15;3.30;;;;;;;;;;5120915;27;20035;-62
2022/08/12 07:55:04;;;;;;;8.00;3.53;;;;;;;;;;5131953;27;20057;-62
2022/08/12 07:57:31;;;;;;;10.75;3.78;;;;;;;;;;5133711;27;20122;-62
2022/08/12 08:00:04;;;;;;;9.98;3.28;;;;;;;;;;5129014;27;20070;-62
2022/08/12 08:02:32;;;;;;;7.63;3.43;;;;;;;;;;5129986;27;20100;-62
2022/08/12 08:04:59;;;;;;;10.02;3.75;;;;;;;;;;5128468;27;20341;-62
2022/08/12 08:07:28;;;;;;;8.13;3.33;;;;;;;;;;5133605;27;20039;-62
2022/08/12 08:09:56;;;;;;;8.32;3.40;;;;;;;;;;5136090;27;20451;-62
2022/08/12 08:15:10;;;;;;;14.02;3.35;;;;;;;;;;5129479;27;20491;-62
2022/08/12 08:17:37;;;;;;;11.90;3.42;;;;;;;;;;5127476;27;20748;-62
2022/08/12 08:20:04;;;;;;;8.30;3.58;;;;;;;;;;5128360;27;20409;-62
2022/08/12 08:22:33;;;;;;;7.07;3.42;;;;;;;;;;5126676;27;20070;-63
2022/08/12 08:24:59;;;;;;;10.60;3.65;;;;;;;;;;5125273;27;20584;-63
2022/08/12 08:27:26;;;;;;;8.02;3.38;;;;;;;;;;5129049;27;20454;-62
2022/08/12 08:29:52;;;;;;;6.97;2.75;;;;;;;;;;5132315;27;20804;-62
2022/08/12 08:32:18;;;;;;;4.70;2.63;;;;;;;;;;5129988;27;20031;-63
2022/08/12 08:34:46;;;;;;;9.20;2.92;;;;;;;;;;5114865;27;20082;-63
2022/08/12 08:37:14;;;;;;;7.93;3.33;;;;;;;;;;5112071;27;20043;-62
2022/08/12 08:39:40;;;;;;;15.07;2.80;;;;;;;;;;5113683;27;20078;-62
2022/08/12 08:44:54;;;;;;;6.28;2.92;;;;;;;;;;5130861;27;20040;-62
2022/08/12 08:47:21;;;;;;;7.03;2.80;;;;;;;;;;5126134;27;20375;-62
2022/08/12 08:49:48;;;;;;;11.25;3.28;;;;;;;;;;5115892;27;20078;-62
2022/08/12 08:52:14;;;;;;;7.60;2.88;;;;;;;;;;5135971;27;20091;-62
2022/08/12 08:54:40;;;;;;;6.88;2.75;;;;;;;;;;5132791;27;20047;-62
2022/08/12 08:57:07;;;;;;;8.40;3.08;;;;;;;;;;5117656;27;20081;-63
2022/08/12 08:59:33;;;;;;;10.13;2.80;;;;;;;;;;5114238;27;20528;-63
2022/08/12 09:02:01;;;;;;;8.55;2.38;;;;;;;;;;5132810;27;20031;-62
2022/08/12 09:04:27;;;;;;;9.18;2.35;;;;;;;;;;5129962;27;20767;-63
2022/08/12 09:06:57;;;;;;;7.30;2.33;;;;;;;;;;5127836;27;20327;-63
2022/08/12 09:09:23;;;;;;;5.20;2.60;;;;;;;;;;5137273;27;20046;-62
2022/08/12 09:14:35;;;;;;;7.47;2.60;;;;;;;;;;5129115;27;20035;-63
2022/08/12 09:17:01;;;;;;;23.17;5.15;;;;;;;;;;5114366;27;20038;-62
2022/08/12 09:19:27;;;;;;;7.10;2.60;;;;;;;;;;5107277;27;20050;-63
2022/08/12 09:21:56;;;;;;;5.60;2.10;;;;;;;;;;5135133;27;20069;-63
2022/08/12 09:24:22;;;;;;;6.93;2.22;;;;;;;;;;5133269;27;20058;-63
2022/08/12 09:26:48;;;;;;;8.95;2.20;;;;;;;;;;5134926;27;20047;-63
2022/08/12 09:29:19;;;;;;;11.50;2.20;;;;;;;;;;5109089;27;20079;-63
2022/08/12 09:31:46;;;;;;;8.35;2.30;;;;;;;;;;5138111;27;20043;-62
2022/08/12 09:34:13;;;;;;;11.35;2.15;;;;;;;;;;5131794;27;20121;-63
2022/08/12 09:36:39;;;;;;;5.68;2.00;;;;;;;;;;5136180;27;20130;-63
2022/08/12 09:39:06;;;;;;;4.68;1.88;;;;;;;;;;5132717;27;20039;-63
2022/08/12 09:41:39;;;;;;;19.27;3.70;;;;;;;;;;5130328;27;20043;-63
2022/08/12 09:46:50;;;;;;;8.32;1.90;;;;;;;;;;5114475;27;20050;-63
2022/08/12 09:49:16;;;;;;;5.72;2.03;;;;;;;;;;5130913;27;21725;-63
2022/08/12 09:51:42;;;;;;;4.60;1.90;;;;;;;;;;5131081;27;20514;-63
2022/08/12 09:54:11;;;;;;;6.13;2.13;;;;;;;;;;5118380;27;20046;-63
2022/08/12 09:56:39;;;;;;;9.85;1.95;;;;;;;;;;5134950;27;20427;-63
2022/08/12 09:59:07;;;;;;;6.10;1.80;;;;;;;;;;5135058;27;20043;-63
2022/08/12 10:01:37;;;;;;;12.00;2.38;;;;;;;;;;5133689;27;20055;-63
2022/08/12 10:04:08;;;;;;;6.43;2.17;;;;;;;;;;5111764;27;20118;-63
2022/08/12 10:06:34;;;;;;;6.65;1.85;;;;;;;;;;5124901;27;20514;-63
2022/08/12 10:09:00;;;;;;;4.32;1.70;;;;;;;;;;5131277;27;20035;-63
2022/08/12 10:14:12;;;;;;;10.07;1.92;;;;;;;;;;5126444;27;20042;-63
2022/08/12 10:16:42;;;;;;;6.00;2.00;;;;;;;;;;5124888;27;20043;-63
2022/08/12 10:19:09;;;;;;;6.07;1.98;;;;;;;;;;5131852;27;20395;-63
2022/08/12 10:21:37;;;;;;;6.93;1.77;;;;;;;;;;5133270;27;20026;-63
2022/08/12 10:24:05;;;;;;;3.53;1.40;;;;;;;;;;5132303;27;20039;-63
2022/08/12 10:32:02;;;;;;;4.55;1.60;;;;;;;;;;5131466;27;20057;-63
2022/08/12 10:34:29;;;;;;;6.25;1.90;;;;;;;;;;5132654;27;20050;-63
2022/08/12 10:36:57;;;;;;;5.28;1.75;;;;;;;;;;5132696;27;20062;-63
2022/08/12 10:39:25;;;;;;;5.75;1.38;;;;;;;;;;5129784;27;20138;-63
2022/08/12 10:44:36;;;;;;;3.65;1.90;;;;;;;;;;5127832;27;20398;-63
2022/08/12 10:47:03;;;;;;;4.03;1.60;;;;;;;;;;5128535;27;20121;-63
2022/08/12 10:49:33;;;;;;;3.83;1.50;;;;;;;;;;5132562;27;20065;-63
2022/08/12 10:52:01;;;;;;;5.20;1.40;;;;;;;;;;5129181;27;20062;-64
2022/08/12 10:54:28;;;;;;;6.65;1.70;;;;;;;;;;5126891;27;20097;-64
2022/08/12 10:56:56;;;;;;;3.95;1.58;;;;;;;;;;5126835;27;20373;-64
2022/08/12 10:59:24;;;;;;;6.20;1.60;;;;;;;;;;5124811;27;20047;-63
2022/08/12 11:01:52;;;;;;;5.78;1.83;;;;;;;;;;5129764;27;20130;-63
2022/08/12 11:04:19;;;;;;;4.00;1.50;;;;;;;;;;5133476;27;20402;-63
2022/08/12 11:06:46;;;;;;;5.25;1.80;;;;;;;;;;5107895;27;20392;-63
2022/08/12 11:09:16;;;;;;;4.70;1.90;;;;;;;;;;5127957;27;20130;-63
2022/08/12 11:11:43;;;;;;;5.03;1.70;;;;;;;;;;5110132;27;20478;-63
2022/08/12 11:14:09;;;;;;;5.85;1.67;;;;;;;;;;5124557;27;20044;-63
2022/08/12 11:16:37;;;;;;;5.18;1.58;;;;;;;;;;5128034;27;20465;-63
2022/08/12 11:19:03;;;;;;;3.83;1.55;;;;;;;;;;5126797;27;20823;-63
2022/08/12 11:21:30;;;;;;;10.15;1.80;;;;;;;;;;5126412;27;20069;-63
2022/08/12 11:23:56;;;;;;;7.00;1.58;;;;;;;;;;5129308;27;20039;-63
2022/08/12 11:26:22;;;;;;;5.40;1.80;;;;;;;;;;5130104;27;20079;-64
2022/08/12 11:28:48;;;;;;;7.90;1.60;;;;;;;;;;5127351;27;20365;-61
2022/08/12 11:31:14;;;;;;;7.63;1.63;;;;;;;;;;5126249;27;20050;-61
2022/08/12 11:33:41;;;;;;;5.03;1.40;;;;;;;;;;5097896;27;20075;-61
2022/08/12 11:36:08;;;;;;;7.85;2.05;;;;;;;;;;5102200;28;20062;-60
2022/08/12 11:38:34;;;;;;;6.90;1.70;;;;;;;;;;5135941;27;20047;-61
2022/08/12 11:41:03;;;;;;;8.68;1.88;;;;;;;;;;5128077;27;20126;-61
2022/08/12 11:43:30;;;;;;;6.60;1.55;;;;;;;;;;5127451;27;20050;-60
2022/08/12 11:45:56;;;;;;;4.25;1.70;;;;;;;;;;5117621;27;20099;-61
2022/08/12 11:48:23;;;;;;;3.53;1.52;;;;;;;;;;5126769;27;20044;-61
2022/08/12 11:50:49;;;;;;;7.03;1.60;;;;;;;;;;5124331;27;20050;-60
2022/08/12 11:53:16;;;;;;;4.95;1.65;;;;;;;;;;5123413;27;20043;-61
2022/08/12 11:55:42;;;;;;;7.38;2.00;;;;;;;;;;5126387;27;20046;-61
2022/08/12 11:58:08;;;;;;;8.05;1.52;;;;;;;;;;5122781;27;20093;-61
2022/08/12 12:00:34;;;;;;;6.53;1.70;;;;;;;;;;5099683;27;20139;-61
2022/08/12 12:03:01;;;;;;;4.97;1.40;;;;;;;;;;5127719;27;20480;-60
2022/08/12 12:05:27;;;;;;;6.82;1.67;;;;;;;;;;5109512;27;20058;-61
2022/08/12 12:07:53;;;;;;;6.22;1.90;;;;;;;;;;5126702;27;20116;-61
2022/08/12 12:10:20;;;;;;;7.20;1.90;;;;;;;;;;5128952;27;20045;-61
2022/08/12 12:12:46;;;;;;;6.18;1.70;;;;;;;;;;5114476;27;20061;-61
2022/08/12 12:15:13;;;;;;;4.72;1.25;;;;;;;;;;5130436;27;20038;-61
2022/08/12 12:17:40;;;;;;;7.88;1.50;;;;;;;;;;5131336;27;20090;-61
2022/08/12 12:20:08;;;;;;;5.65;1.40;;;;;;;;;;5130252;27;20066;-60
2022/08/12 12:22:35;;;;;;;7.93;2.08;;;;;;;;;;5130816;27;20562;-61
2022/08/12 12:25:01;;;;;;;9.88;1.48;;;;;;;;;;5123188;27;20146;-60
2022/08/12 12:27:27;;;;;;;5.38;1.67;;;;;;;;;;5129844;27;20031;-61
2022/08/12 12:29:56;;;;;;;9.82;1.70;;;;;;;;;;5125112;27;20043;-57
2022/08/12 12:32:22;;;;;;;8.18;1.80;;;;;;;;;;5131204;27;20035;-57
2022/08/12 12:34:48;;;;;;;8.10;1.73;;;;;;;;;;5129962;27;20040;-57
2022/08/12 12:37:15;;;;;;;9.07;1.67;;;;;;;;;;5121703;27;20039;-57
2022/08/12 12:39:42;;;;;;;7.13;2.10;;;;;;;;;;5127133;27;20447;-57
2022/08/12 12:42:08;;;;;;;6.53;1.67;;;;;;;;;;5124876;27;20494;-57
2022/08/12 12:44:34;;;;;;;6.57;1.83;;;;;;;;;;5125296;27;20062;-57
2022/08/12 12:47:00;;;;;;;6.40;1.88;;;;;;;;;;5120415;27;20043;-57
2022/08/12 12:49:27;;;;;;;4.90;1.55;;;;;;;;;;5123329;27;20088;-57
2022/08/12 12:51:53;;;;;;;7.40;1.80;;;;;;;;;;5128152;27;20246;-57
2022/08/12 12:54:19;;;;;;;7.22;1.67;;;;;;;;;;5124300;27;20106;-58
2022/08/12 12:56:48;;;;;;;3.70;1.70;;;;;;;;;;5124530;27;20487;-57
2022/08/12 12:59:17;;;;;;;6.07;1.65;;;;;;;;;;5127190;27;20039;-57
2022/08/12 13:01:43;;;;;;;4.00;1.75;;;;;;;;;;5125931;27;20125;-57
2022/08/12 13:04:10;;;;;;;7.78;2.08;;;;;;;;;;5108785;27;20489;-57
2022/08/12 13:06:40;;;;;;;5.78;1.85;;;;;;;;;;5123178;27;20039;-58
2022/08/12 13:09:06;;;;;;;5.43;1.67;;;;;;;;;;5122735;27;20059;-58
2022/08/12 13:11:32;;;;;;;7.10;1.60;;;;;;;;;;5126475;27;20111;-72
2022/08/12 13:13:59;;;;;;;6.72;1.70;;;;;;;;;;5121366;27;20449;-57
2022/08/12 13:16:28;;;;;;;7.63;1.83;;;;;;;;;;5121468;27;20100;-58
2022/08/12 13:18:55;;;;;;;11.75;1.85;;;;;;;;;;5117561;27;20111;-58
2022/08/12 13:21:21;;;;;;;5.28;1.85;;;;;;;;;;5119558;27;20039;-57
2022/08/12 13:23:48;;;;;;;4.47;1.63;;;;;;;;;;5123065;27;20084;-58
2022/08/12 13:26:16;;;;;;;4.80;1.98;;;;;;;;;;5100078;27;20039;-58
2022/08/12 13:28:44;;;;;;;3.85;1.45;;;;;;;;;;5120182;27;20043;-62
2022/08/12 13:31:11;;;;;;;10.68;2.00;;;;;;;;;;5134667;27;20042;-57
2022/08/12 13:33:37;;;;;;;5.80;1.80;;;;;;;;;;5124466;27;20070;-57
2022/08/12 13:36:04;;;;;;;6.93;1.77;;;;;;;;;;5121578;27;20031;-58
2022/08/12 13:38:38;;;;;;;8.73;1.77;;;;;;;;;;5116758;27;20579;-57
2022/08/12 13:41:05;;;;;;;7.05;1.80;;;;;;;;;;5123276;27;20524;-57
2022/08/12 13:43:32;;;;;;;8.85;1.90;;;;;;;;;;5124943;27;20084;-58
2022/08/12 13:45:58;;;;;;;7.05;1.70;;;;;;;;;;5131853;27;20114;-58
2022/08/12 13:48:25;;;;;;;6.05;1.85;;;;;;;;;;5124540;27;20313;-63
2022/08/12 13:50:51;;;;;;;7.28;2.00;;;;;;;;;;5125232;27;20141;-58
2022/08/12 13:53:18;;;;;;;7.47;1.52;;;;;;;;;;5127688;27;20259;-57
2022/08/12 13:55:46;;;;;;;4.57;1.90;;;;;;;;;;5121483;27;20043;-58
2022/08/12 13:58:15;;;;;;;6.65;2.08;;;;;;;;;;5134866;27;20039;-58
2022/08/12 14:00:44;;;;;;;11.75;1.98;;;;;;;;;;5126310;27;20043;-58
2022/08/12 14:03:12;;;;;;;7.28;1.90;;;;;;;;;;5130334;27;20039;-57
2022/08/12 14:05:38;;;;;;;6.93;1.60;;;;;;;;;;5132145;27;20125;-58
2022/08/12 14:08:05;;;;;;;10.23;1.73;;;;;;;;;;5123629;27;20035;-58
2022/08/12 14:10:36;;;;;;;5.10;1.60;;;;;;;;;;5101833;27;20498;-57
2022/08/12 14:13:04;;;;;;;4.60;1.40;;;;;;;;;;5120195;27;20043;-60
2022/08/12 14:15:31;;;;;;;5.03;1.63;;;;;;;;;;5103246;27;20103;-60
2022/08/12 14:18:05;;;;;;;6.22;1.65;;;;;;;;;;5122610;27;20489;-60
2022/08/12 14:20:31;;;;;;;8.00;1.40;;;;;;;;;;5119580;27;20474;-60
2022/08/12 14:22:58;;;;;;;5.55;1.52;;;;;;;;;;5120816;27;20096;-60
2022/08/12 14:25:27;;;;;;;5.47;1.45;;;;;;;;;;5117831;27;20181;-61
2022/08/12 14:27:54;;;;;;;6.93;1.63;;;;;;;;;;5119367;27;20109;-60
2022/08/12 14:30:22;;;;;;;6.65;1.52;;;;;;;;;;5115559;27;20034;-60
2022/08/12 14:32:48;;;;;;;6.32;1.30;;;;;;;;;;5123545;27;20039;-60
2022/08/12 14:35:14;;;;;;;8.00;1.90;;;;;;;;;;5107192;27;20039;-61
2022/08/12 14:37:42;;;;;;;7.25;1.73;;;;;;;;;;5123330;27;20450;-60
2022/08/12 14:40:08;;;;;;;6.75;1.73;;;;;;;;;;5109347;27;20114;-61
2022/08/12 14:42:35;;;;;;;4.53;1.40;;;;;;;;;;5130262;27;20081;-57
2022/08/12 14:45:01;;;;;;;7.57;1.65;;;;;;;;;;5123842;27;20042;-58
2022/08/12 14:47:27;;;;;;;7.13;1.60;;;;;;;;;;5130393;27;20108;-57
2022/08/12 14:49:53;;;;;;;14.63;1.45;;;;;;;;;;5128551;27;20063;-57
2022/08/12 14:52:19;;;;;;;8.60;1.52;;;;;;;;;;5121300;27;20039;-58
2022/08/12 14:54:45;;;;;;;3.85;1.38;;;;;;;;;;5119597;27;20085;-57
2022/08/12 14:57:11;;;;;;;4.55;1.50;;;;;;;;;;5121602;27;20043;-55
2022/08/12 15:02:22;;;;;;;4.40;1.58;;;;;;;;;;5118710;27;20061;-55
2022/08/12 15:04:57;;;;;;;4.68;1.67;;;;;;;;;;5123317;27;20098;-55
2022/08/12 15:07:26;;;;;;;5.85;1.60;;;;;;;;;;5124121;27;20039;-55
2022/08/12 15:09:52;;;;;;;8.40;1.80;;;;;;;;;;5126268;27;20041;-55
2022/08/12 15:12:18;;;;;;;5.82;1.75;;;;;;;;;;5118959;27;21908;-55
2022/08/12 15:14:45;;;;;;;6.85;1.70;;;;;;;;;;5121187;27;20035;-55
2022/08/12 15:17:11;;;;;;;7.88;1.73;;;;;;;;;;5116991;27;20050;-55
2022/08/12 15:19:37;;;;;;;8.77;2.20;;;;;;;;;;5116922;27;20048;-54
2022/08/12 15:22:04;;;;;;;5.07;1.58;;;;;;;;;;5117640;27;20566;-57
2022/08/12 15:24:32;;;;;;;5.82;1.77;;;;;;;;;;5101721;28;20331;-58
2022/08/12 15:26:58;;;;;;;7.00;1.85;;;;;;;;;;5097584;28;20047;-57
2022/08/12 15:29:27;;;;;;;7.00;1.90;;;;;;;;;;5116046;27;20416;-69
2022/08/12 15:31:53;;;;;;;4.30;1.50;;;;;;;;;;5113318;27;20043;-73
2022/08/12 15:34:19;;;;;;;7.78;1.90;;;;;;;;;;5098343;28;20373;-63
2022/08/12 15:36:45;;;;;;;5.03;1.60;;;;;;;;;;5121528;27;20047;-63
2022/08/12 15:39:11;;;;;;;7.68;2.03;;;;;;;;;;5119894;27;20038;-74
2022/08/12 15:41:37;;;;;;;4.82;1.92;;;;;;;;;;5120729;27;20043;-58
2022/08/12 15:44:04;;;;;;;6.65;1.88;;;;;;;;;;5125136;27;20551;-76
2022/08/12 15:46:38;;;;;;;6.70;1.75;;;;;;;;;;5325826;22;20067;-61
2022/08/12 15:49:06;;;;;;;6.93;1.70;;;;;;;;;;5085095;28;20577;-73
2022/08/12 15:51:34;;;;;;;10.43;1.83;;;;;;;;;;5066613;28;20089;-74
2022/08/12 15:54:03;;;;;;;11.88;2.08;;;;;;;;;;5085305;28;20043;-70
2022/08/12 15:56:29;;;;;;;7.50;1.60;;;;;;;;;;5087491;28;20097;-67
2022/08/12 15:58:57;;;;;;;9.57;2.10;;;;;;;;;;5088647;28;20492;-69
2022/08/12 16:01:23;;;;;;;6.07;1.70;;;;;;;;;;5085446;28;20036;-61
2022/08/12 16:03:50;;;;;;;5.88;1.85;;;;;;;;;;5081357;28;20044;-61
2022/08/12 16:06:17;;;;;;;4.40;1.63;;;;;;;;;;5086439;28;20772;-61
2022/08/12 16:08:44;;;;;;;9.45;1.80;;;;;;;;;;5083500;28;20060;-61
2022/08/12 16:11:16;;;;;;;9.60;1.75;;;;;;;;;;5081176;28;20413;-62
2022/08/12 16:13:42;;;;;;;;;;;;;;;;;;5085093;28;20071;-61
2022/08/12 16:16:09;;;;;;;6.22;1.63;;;;;;;;;;5084638;28;20019;-61
2022/08/12 16:18:37;;;;;;;6.05;2.40;;;;;;;;;;5085047;28;20421;-62
2022/08/12 16:21:05;;;;;;;6.07;1.80;;;;;;;;;;5083275;28;20032;-62
2022/08/12 16:23:33;;;;;;;7.65;1.80;;;;;;;;;;5065647;28;20052;-61
2022/08/12 16:26:02;;;;;;;4.47;1.80;;;;;;;;;;5087571;28;20111;-62